sensor_id;sensor_type;location;lat;lon;timestamp;P1;durP1;ratioP1;P2;durP2;ratioP2
33654;SDS011;19997;51.274;22.506;2022-11-20T00:00:25;95.22;;;27.88;;
33654;SDS011;19997;51.274;22.506;2022-11-20T00:02:52;92.20;;;29.00;;
33654;SDS011;19997;51.274;22.506;2022-11-20T00:05:19;81.25;;;25.90;;
33654;SDS011;19997;51.274;22.506;2022-11-20T00:07:46;68.03;;;21.73;;
33654;SDS011;19997;51.274;22.506;2022-11-20T00:10:13;68.90;;;23.30;;
33654;SDS011;19997;51.274;22.506;2022-11-20T00:12:42;69.88;;;22.65;;
33654;SDS011;19997;51.274;22.506;2022-11-20T00:15:09;62.30;;;20.63;;
33654;SDS011;19997;51.274;22.506;2022-11-20T00:17:38;79.78;;;22.30;;
33654;SDS011;19997;51.274;22.506;2022-11-20T00:20:05;61.10;;;21.77;;
33654;SDS011;19997;51.274;22.506;2022-11-20T00:22:33;57.63;;;20.33;;
33654;SDS011;19997;51.274;22.506;2022-11-20T00:25:00;60.72;;;21.08;;
33654;SDS011;19997;51.274;22.506;2022-11-20T00:27:27;62.13;;;21.38;;
33654;SDS011;19997;51.274;22.506;2022-11-20T00:29:55;55.35;;;19.05;;
33654;SDS011;19997;51.274;22.506;2022-11-20T00:32:22;63.05;;;21.50;;
33654;SDS011;19997;51.274;22.506;2022-11-20T00:34:49;68.20;;;23.73;;
33654;SDS011;19997;51.274;22.506;2022-11-20T00:37:16;57.90;;;21.42;;
33654;SDS011;19997;51.274;22.506;2022-11-20T00:39:43;63.85;;;21.55;;
33654;SDS011;19997;51.274;22.506;2022-11-20T00:42:10;64.07;;;20.17;;
33654;SDS011;19997;51.274;22.506;2022-11-20T00:44:37;57.28;;;20.65;;
33654;SDS011;19997;51.274;22.506;2022-11-20T00:47:06;67.72;;;22.23;;
33654;SDS011;19997;51.274;22.506;2022-11-20T00:49:33;57.55;;;20.00;;
33654;SDS011;19997;51.274;22.506;2022-11-20T00:52:00;59.50;;;20.65;;
33654;SDS011;19997;51.274;22.506;2022-11-20T00:54:27;58.60;;;19.15;;
33654;SDS011;19997;51.274;22.506;2022-11-20T00:56:54;74.35;;;21.55;;
33654;SDS011;19997;51.274;22.506;2022-11-20T00:59:21;63.13;;;21.50;;
33654;SDS011;19997;51.274;22.506;2022-11-20T01:01:49;61.97;;;21.90;;
33654;SDS011;19997;51.274;22.506;2022-11-20T01:04:17;57.45;;;20.85;;
33654;SDS011;19997;51.274;22.506;2022-11-20T01:06:44;62.15;;;21.70;;
33654;SDS011;19997;51.274;22.506;2022-11-20T01:09:12;77.93;;;23.63;;
33654;SDS011;19997;51.274;22.506;2022-11-20T01:11:41;73.65;;;20.95;;
33654;SDS011;19997;51.274;22.506;2022-11-20T01:14:11;54.70;;;16.80;;
33654;SDS011;19997;51.274;22.506;2022-11-20T01:16:40;45.30;;;15.68;;
33654;SDS011;19997;51.274;22.506;2022-11-20T01:19:09;47.08;;;16.75;;
33654;SDS011;19997;51.274;22.506;2022-11-20T01:21:40;42.63;;;16.00;;
33654;SDS011;19997;51.274;22.506;2022-11-20T01:24:09;38.88;;;15.27;;
33654;SDS011;19997;51.274;22.506;2022-11-20T01:26:39;47.70;;;14.77;;
33654;SDS011;19997;51.274;22.506;2022-11-20T01:29:08;35.25;;;11.75;;
33654;SDS011;19997;51.274;22.506;2022-11-20T01:31:39;41.10;;;13.43;;
33654;SDS011;19997;51.274;22.506;2022-11-20T01:34:07;43.25;;;14.80;;
33654;SDS011;19997;51.274;22.506;2022-11-20T01:36:43;39.00;;;15.07;;
33654;SDS011;19997;51.274;22.506;2022-11-20T01:39:11;33.83;;;12.73;;
33654;SDS011;19997;51.274;22.506;2022-11-20T01:41:39;40.45;;;14.75;;
33654;SDS011;19997;51.274;22.506;2022-11-20T01:47:14;35.40;;;14.32;;
33654;SDS011;19997;51.274;22.506;2022-11-20T01:49:45;47.28;;;15.88;;
33654;SDS011;19997;51.274;22.506;2022-11-20T01:52:17;42.53;;;14.82;;
33654;SDS011;19997;51.274;22.506;2022-11-20T01:54:47;50.65;;;17.17;;
33654;SDS011;19997;51.274;22.506;2022-11-20T01:57:18;37.83;;;14.85;;
33654;SDS011;19997;51.274;22.506;2022-11-20T01:59:48;49.58;;;16.25;;
33654;SDS011;19997;51.274;22.506;2022-11-20T02:02:20;44.45;;;14.93;;
33654;SDS011;19997;51.274;22.506;2022-11-20T02:04:47;39.50;;;13.38;;
33654;SDS011;19997;51.274;22.506;2022-11-20T02:07:19;39.50;;;14.73;;
33654;SDS011;19997;51.274;22.506;2022-11-20T02:09:47;45.57;;;15.63;;
33654;SDS011;19997;51.274;22.506;2022-11-20T02:12:14;38.42;;;13.93;;
33654;SDS011;19997;51.274;22.506;2022-11-20T02:14:55;48.78;;;16.77;;
33654;SDS011;19997;51.274;22.506;2022-11-20T02:17:23;40.65;;;15.68;;
33654;SDS011;19997;51.274;22.506;2022-11-20T02:19:51;50.70;;;18.15;;
33654;SDS011;19997;51.274;22.506;2022-11-20T02:22:21;40.88;;;15.43;;
33654;SDS011;19997;51.274;22.506;2022-11-20T02:24:55;44.40;;;15.75;;
33654;SDS011;19997;51.274;22.506;2022-11-20T02:27:23;40.67;;;16.63;;
33654;SDS011;19997;51.274;22.506;2022-11-20T02:29:50;47.33;;;16.50;;
33654;SDS011;19997;51.274;22.506;2022-11-20T02:32:20;39.08;;;14.98;;
33654;SDS011;19997;51.274;22.506;2022-11-20T02:34:48;43.38;;;15.65;;
33654;SDS011;19997;51.274;22.506;2022-11-20T02:37:15;43.58;;;16.08;;
33654;SDS011;19997;51.274;22.506;2022-11-20T02:39:44;42.40;;;15.65;;
33654;SDS011;19997;51.274;22.506;2022-11-20T02:42:13;43.13;;;16.15;;
33654;SDS011;19997;51.274;22.506;2022-11-20T02:44:40;40.78;;;15.10;;
33654;SDS011;19997;51.274;22.506;2022-11-20T02:47:08;42.72;;;15.05;;
33654;SDS011;19997;51.274;22.506;2022-11-20T02:49:35;39.50;;;14.25;;
33654;SDS011;19997;51.274;22.506;2022-11-20T02:52:02;38.67;;;15.65;;
33654;SDS011;19997;51.274;22.506;2022-11-20T02:54:29;46.70;;;15.05;;
33654;SDS011;19997;51.274;22.506;2022-11-20T02:56:56;37.25;;;15.60;;
33654;SDS011;19997;51.274;22.506;2022-11-20T02:59:24;40.95;;;15.82;;
33654;SDS011;19997;51.274;22.506;2022-11-20T03:01:51;39.63;;;15.02;;
33654;SDS011;19997;51.274;22.506;2022-11-20T03:04:18;39.95;;;15.18;;
33654;SDS011;19997;51.274;22.506;2022-11-20T03:06:45;35.30;;;14.38;;
33654;SDS011;19997;51.274;22.506;2022-11-20T03:09:12;43.25;;;15.90;;
33654;SDS011;19997;51.274;22.506;2022-11-20T03:11:39;45.15;;;16.67;;
33654;SDS011;19997;51.274;22.506;2022-11-20T03:14:06;35.55;;;14.52;;
33654;SDS011;19997;51.274;22.506;2022-11-20T03:16:35;42.58;;;14.73;;
33654;SDS011;19997;51.274;22.506;2022-11-20T03:19:02;39.33;;;15.60;;
33654;SDS011;19997;51.274;22.506;2022-11-20T03:21:29;36.28;;;13.25;;
33654;SDS011;19997;51.274;22.506;2022-11-20T03:23:56;33.75;;;13.32;;
33654;SDS011;19997;51.274;22.506;2022-11-20T03:26:24;33.70;;;14.52;;
33654;SDS011;19997;51.274;22.506;2022-11-20T03:28:52;38.25;;;13.75;;
33654;SDS011;19997;51.274;22.506;2022-11-20T03:31:21;36.45;;;14.20;;
33654;SDS011;19997;51.274;22.506;2022-11-20T03:33:51;21.95;;;9.98;;
33654;SDS011;19997;51.274;22.506;2022-11-20T03:36:19;38.28;;;14.23;;
33654;SDS011;19997;51.274;22.506;2022-11-20T03:38:47;34.42;;;13.00;;
33654;SDS011;19997;51.274;22.506;2022-11-20T03:41:15;34.35;;;13.77;;
33654;SDS011;19997;51.274;22.506;2022-11-20T03:43:46;35.70;;;13.90;;
33654;SDS011;19997;51.274;22.506;2022-11-20T03:46:14;40.47;;;13.70;;
33654;SDS011;19997;51.274;22.506;2022-11-20T03:48:41;36.10;;;14.10;;
33654;SDS011;19997;51.274;22.506;2022-11-20T03:51:11;35.72;;;14.20;;
33654;SDS011;19997;51.274;22.506;2022-11-20T03:53:39;33.20;;;13.52;;
33654;SDS011;19997;51.274;22.506;2022-11-20T03:56:06;33.03;;;14.32;;
33654;SDS011;19997;51.274;22.506;2022-11-20T03:58:35;34.17;;;13.30;;
33654;SDS011;19997;51.274;22.506;2022-11-20T04:01:05;32.15;;;12.55;;
33654;SDS011;19997;51.274;22.506;2022-11-20T04:03:33;35.22;;;13.35;;
33654;SDS011;19997;51.274;22.506;2022-11-20T04:06:02;38.47;;;14.85;;
33654;SDS011;19997;51.274;22.506;2022-11-20T04:08:31;34.47;;;13.98;;
33654;SDS011;19997;51.274;22.506;2022-11-20T04:11:07;33.17;;;13.85;;
33654;SDS011;19997;51.274;22.506;2022-11-20T04:13:36;35.13;;;13.88;;
33654;SDS011;19997;51.274;22.506;2022-11-20T04:16:03;37.88;;;13.57;;
33654;SDS011;19997;51.274;22.506;2022-11-20T04:18:31;33.17;;;12.73;;
33654;SDS011;19997;51.274;22.506;2022-11-20T04:20:59;42.92;;;15.10;;
33654;SDS011;19997;51.274;22.506;2022-11-20T04:23:26;31.80;;;12.70;;
33654;SDS011;19997;51.274;22.506;2022-11-20T04:25:55;35.17;;;14.60;;
33654;SDS011;19997;51.274;22.506;2022-11-20T04:28:41;35.30;;;13.57;;
33654;SDS011;19997;51.274;22.506;2022-11-20T04:31:09;35.00;;;14.05;;
33654;SDS011;19997;51.274;22.506;2022-11-20T04:33:38;38.55;;;15.18;;
33654;SDS011;19997;51.274;22.506;2022-11-20T04:36:07;39.58;;;15.27;;
33654;SDS011;19997;51.274;22.506;2022-11-20T04:38:37;30.17;;;14.20;;
33654;SDS011;19997;51.274;22.506;2022-11-20T04:41:08;35.75;;;13.02;;
33654;SDS011;19997;51.274;22.506;2022-11-20T04:43:40;42.17;;;13.23;;
33654;SDS011;19997;51.274;22.506;2022-11-20T04:46:07;34.45;;;13.57;;
33654;SDS011;19997;51.274;22.506;2022-11-20T04:48:34;32.58;;;13.77;;
33654;SDS011;19997;51.274;22.506;2022-11-20T04:51:02;36.85;;;13.48;;
33654;SDS011;19997;51.274;22.506;2022-11-20T04:53:29;34.90;;;13.57;;
33654;SDS011;19997;51.274;22.506;2022-11-20T04:55:59;31.50;;;13.93;;
33654;SDS011;19997;51.274;22.506;2022-11-20T04:58:28;33.17;;;14.07;;
33654;SDS011;19997;51.274;22.506;2022-11-20T05:01:00;31.45;;;13.48;;
33654;SDS011;19997;51.274;22.506;2022-11-20T05:03:28;32.50;;;12.82;;
33654;SDS011;19997;51.274;22.506;2022-11-20T05:05:55;33.83;;;14.48;;
33654;SDS011;19997;51.274;22.506;2022-11-20T05:08:22;31.45;;;11.63;;
33654;SDS011;19997;51.274;22.506;2022-11-20T05:10:49;35.72;;;13.65;;
33654;SDS011;19997;51.274;22.506;2022-11-20T05:13:16;31.70;;;12.70;;
33654;SDS011;19997;51.274;22.506;2022-11-20T05:15:44;30.42;;;13.05;;
33654;SDS011;19997;51.274;22.506;2022-11-20T05:18:11;33.45;;;12.85;;
33654;SDS011;19997;51.274;22.506;2022-11-20T05:20:38;34.83;;;12.10;;
33654;SDS011;19997;51.274;22.506;2022-11-20T05:23:05;35.58;;;12.82;;
33654;SDS011;19997;51.274;22.506;2022-11-20T05:25:32;37.03;;;13.05;;
33654;SDS011;19997;51.274;22.506;2022-11-20T05:27:59;33.85;;;12.65;;
33654;SDS011;19997;51.274;22.506;2022-11-20T05:30:26;34.50;;;13.20;;
33654;SDS011;19997;51.274;22.506;2022-11-20T05:32:55;35.13;;;13.85;;
33654;SDS011;19997;51.274;22.506;2022-11-20T05:35:22;33.20;;;12.93;;
33654;SDS011;19997;51.274;22.506;2022-11-20T05:37:49;39.10;;;13.57;;
33654;SDS011;19997;51.274;22.506;2022-11-20T05:40:16;39.25;;;14.15;;
33654;SDS011;19997;51.274;22.506;2022-11-20T05:42:43;36.00;;;14.20;;
33654;SDS011;19997;51.274;22.506;2022-11-20T05:45:10;39.00;;;13.93;;
33654;SDS011;19997;51.274;22.506;2022-11-20T05:47:37;36.95;;;15.10;;
33654;SDS011;19997;51.274;22.506;2022-11-20T05:50:06;38.70;;;14.15;;
33654;SDS011;19997;51.274;22.506;2022-11-20T05:52:33;39.90;;;14.55;;
33654;SDS011;19997;51.274;22.506;2022-11-20T05:55:00;37.10;;;15.32;;
33654;SDS011;19997;51.274;22.506;2022-11-20T05:57:27;36.13;;;14.57;;
33654;SDS011;19997;51.274;22.506;2022-11-20T05:59:54;39.90;;;15.75;;
33654;SDS011;19997;51.274;22.506;2022-11-20T06:02:21;40.17;;;14.57;;
33654;SDS011;19997;51.274;22.506;2022-11-20T06:04:48;42.30;;;14.55;;
33654;SDS011;19997;51.274;22.506;2022-11-20T06:07:16;43.05;;;15.13;;
33654;SDS011;19997;51.274;22.506;2022-11-20T06:09:43;39.00;;;14.40;;
33654;SDS011;19997;51.274;22.506;2022-11-20T06:12:10;43.28;;;14.50;;
33654;SDS011;19997;51.274;22.506;2022-11-20T06:14:37;46.17;;;16.67;;
33654;SDS011;19997;51.274;22.506;2022-11-20T06:17:04;39.63;;;15.82;;
33654;SDS011;19997;51.274;22.506;2022-11-20T06:19:31;39.88;;;15.13;;
33654;SDS011;19997;51.274;22.506;2022-11-20T06:21:59;38.88;;;16.13;;
33654;SDS011;19997;51.274;22.506;2022-11-20T06:24:27;37.20;;;14.75;;
33654;SDS011;19997;51.274;22.506;2022-11-20T06:26:54;41.25;;;14.63;;
33654;SDS011;19997;51.274;22.506;2022-11-20T06:29:21;42.45;;;14.95;;
33654;SDS011;19997;51.274;22.506;2022-11-20T06:31:48;41.40;;;15.02;;
33654;SDS011;19997;51.274;22.506;2022-11-20T06:34:15;40.67;;;14.80;;
33654;SDS011;19997;51.274;22.506;2022-11-20T06:36:42;39.25;;;14.07;;
33654;SDS011;19997;51.274;22.506;2022-11-20T06:39:09;38.15;;;14.85;;
33654;SDS011;19997;51.274;22.506;2022-11-20T06:41:38;41.67;;;14.30;;
33654;SDS011;19997;51.274;22.506;2022-11-20T06:44:05;39.00;;;15.77;;
33654;SDS011;19997;51.274;22.506;2022-11-20T06:46:32;36.45;;;14.45;;
33654;SDS011;19997;51.274;22.506;2022-11-20T06:48:59;45.17;;;16.20;;
33654;SDS011;19997;51.274;22.506;2022-11-20T06:51:26;39.15;;;15.63;;
33654;SDS011;19997;51.274;22.506;2022-11-20T06:53:53;44.47;;;15.50;;
33654;SDS011;19997;51.274;22.506;2022-11-20T06:56:20;38.33;;;15.38;;
33654;SDS011;19997;51.274;22.506;2022-11-20T06:58:48;42.22;;;16.92;;
33654;SDS011;19997;51.274;22.506;2022-11-20T07:01:16;38.17;;;15.70;;
33654;SDS011;19997;51.274;22.506;2022-11-20T07:03:43;218.18;;;45.38;;
33654;SDS011;19997;51.274;22.506;2022-11-20T07:06:10;161.05;;;33.80;;
33654;SDS011;19997;51.274;22.506;2022-11-20T07:08:37;61.30;;;19.20;;
33654;SDS011;19997;51.274;22.506;2022-11-20T07:11:05;80.15;;;24.60;;
33654;SDS011;19997;51.274;22.506;2022-11-20T07:13:33;50.20;;;18.55;;
33654;SDS011;19997;51.274;22.506;2022-11-20T07:16:02;67.97;;;21.20;;
33654;SDS011;19997;51.274;22.506;2022-11-20T07:18:31;77.78;;;21.90;;
33654;SDS011;19997;51.274;22.506;2022-11-20T07:21:00;46.75;;;16.73;;
33654;SDS011;19997;51.274;22.506;2022-11-20T07:23:27;46.05;;;16.35;;
33654;SDS011;19997;51.274;22.506;2022-11-20T07:25:54;60.80;;;20.23;;
33654;SDS011;19997;51.274;22.506;2022-11-20T07:28:22;41.00;;;14.55;;
33654;SDS011;19997;51.274;22.506;2022-11-20T07:30:49;65.82;;;19.88;;
33654;SDS011;19997;51.274;22.506;2022-11-20T07:33:18;57.47;;;18.30;;
33654;SDS011;19997;51.274;22.506;2022-11-20T07:35:46;97.05;;;24.40;;
33654;SDS011;19997;51.274;22.506;2022-11-20T07:38:13;117.78;;;28.60;;
33654;SDS011;19997;51.274;22.506;2022-11-20T07:40:40;93.72;;;26.00;;
33654;SDS011;19997;51.274;22.506;2022-11-20T07:43:07;74.30;;;22.80;;
33654;SDS011;19997;51.274;22.506;2022-11-20T07:45:34;60.35;;;21.33;;
33654;SDS011;19997;51.274;22.506;2022-11-20T07:48:01;51.38;;;19.48;;
33654;SDS011;19997;51.274;22.506;2022-11-20T07:50:29;51.95;;;18.73;;
33654;SDS011;19997;51.274;22.506;2022-11-20T07:53:00;47.38;;;17.63;;
33654;SDS011;19997;51.274;22.506;2022-11-20T07:55:28;48.63;;;19.02;;
33654;SDS011;19997;51.274;22.506;2022-11-20T07:57:56;38.95;;;15.82;;
33654;SDS011;19997;51.274;22.506;2022-11-20T08:00:23;46.05;;;18.67;;
33654;SDS011;19997;51.274;22.506;2022-11-20T08:02:51;40.47;;;16.83;;
33654;SDS011;19997;51.274;22.506;2022-11-20T08:05:18;53.45;;;17.35;;
33654;SDS011;19997;51.274;22.506;2022-11-20T08:07:47;46.58;;;17.80;;
33654;SDS011;19997;51.274;22.506;2022-11-20T08:10:14;54.45;;;19.45;;
33654;SDS011;19997;51.274;22.506;2022-11-20T08:12:45;48.63;;;21.35;;
33654;SDS011;19997;51.274;22.506;2022-11-20T08:15:30;64.68;;;23.33;;
33654;SDS011;19997;51.274;22.506;2022-11-20T08:18:01;58.25;;;21.55;;
33654;SDS011;19997;51.274;22.506;2022-11-20T08:20:29;49.28;;;17.90;;
33654;SDS011;19997;51.274;22.506;2022-11-20T08:23:01;48.45;;;18.38;;
33654;SDS011;19997;51.274;22.506;2022-11-20T08:25:31;42.13;;;15.70;;
33654;SDS011;19997;51.274;22.506;2022-11-20T08:27:59;42.38;;;14.73;;
33654;SDS011;19997;51.274;22.506;2022-11-20T08:30:27;33.75;;;14.30;;
33654;SDS011;19997;51.274;22.506;2022-11-20T08:32:54;31.65;;;12.80;;
33654;SDS011;19997;51.274;22.506;2022-11-20T08:35:26;42.95;;;15.10;;
33654;SDS011;19997;51.274;22.506;2022-11-20T08:37:53;40.05;;;14.45;;
33654;SDS011;19997;51.274;22.506;2022-11-20T08:40:22;39.63;;;15.25;;
33654;SDS011;19997;51.274;22.506;2022-11-20T08:42:49;32.60;;;13.77;;
33654;SDS011;19997;51.274;22.506;2022-11-20T08:45:17;41.03;;;13.93;;
33654;SDS011;19997;51.274;22.506;2022-11-20T08:47:45;32.75;;;11.90;;
33654;SDS011;19997;51.274;22.506;2022-11-20T08:50:13;34.50;;;13.40;;
33654;SDS011;19997;51.274;22.506;2022-11-20T08:52:41;36.75;;;13.95;;
33654;SDS011;19997;51.274;22.506;2022-11-20T08:55:09;38.05;;;13.27;;
33654;SDS011;19997;51.274;22.506;2022-11-20T08:57:37;33.40;;;11.75;;
33654;SDS011;19997;51.274;22.506;2022-11-20T09:00:05;32.05;;;12.27;;
33654;SDS011;19997;51.274;22.506;2022-11-20T09:02:34;30.65;;;11.38;;
33654;SDS011;19997;51.274;22.506;2022-11-20T09:05:01;35.72;;;14.50;;
33654;SDS011;19997;51.274;22.506;2022-11-20T09:07:29;31.10;;;13.48;;
33654;SDS011;19997;51.274;22.506;2022-11-20T09:09:56;30.83;;;12.43;;
33654;SDS011;19997;51.274;22.506;2022-11-20T09:12:23;43.17;;;14.30;;
33654;SDS011;19997;51.274;22.506;2022-11-20T09:14:52;38.28;;;14.15;;
33654;SDS011;19997;51.274;22.506;2022-11-20T09:17:19;28.55;;;13.55;;
33654;SDS011;19997;51.274;22.506;2022-11-20T09:19:46;35.85;;;13.48;;
33654;SDS011;19997;51.274;22.506;2022-11-20T09:22:13;39.40;;;14.93;;
33654;SDS011;19997;51.274;22.506;2022-11-20T09:24:40;40.80;;;16.80;;
33654;SDS011;19997;51.274;22.506;2022-11-20T09:27:08;32.40;;;14.77;;
33654;SDS011;19997;51.274;22.506;2022-11-20T09:29:35;47.45;;;17.83;;
33654;SDS011;19997;51.274;22.506;2022-11-20T09:32:04;43.33;;;16.85;;
33654;SDS011;19997;51.274;22.506;2022-11-20T09:34:31;49.17;;;19.38;;
33654;SDS011;19997;51.274;22.506;2022-11-20T09:36:58;42.78;;;17.92;;
33654;SDS011;19997;51.274;22.506;2022-11-20T09:39:25;34.83;;;15.15;;
33654;SDS011;19997;51.274;22.506;2022-11-20T09:42:17;42.33;;;15.77;;
33654;SDS011;19997;51.274;22.506;2022-11-20T09:44:58;43.15;;;16.10;;
33654;SDS011;19997;51.274;22.506;2022-11-20T09:50:23;43.53;;;15.73;;
33654;SDS011;19997;51.274;22.506;2022-11-20T09:52:56;31.60;;;14.18;;
33654;SDS011;19997;51.274;22.506;2022-11-20T09:55:37;32.92;;;12.57;;
33654;SDS011;19997;51.274;22.506;2022-11-20T09:58:05;32.60;;;12.25;;
33654;SDS011;19997;51.274;22.506;2022-11-20T10:00:34;31.55;;;13.60;;
33654;SDS011;19997;51.274;22.506;2022-11-20T10:03:06;34.60;;;13.73;;
33654;SDS011;19997;51.274;22.506;2022-11-20T10:05:41;34.80;;;13.63;;
33654;SDS011;19997;51.274;22.506;2022-11-20T10:08:14;35.67;;;13.20;;
33654;SDS011;19997;51.274;22.506;2022-11-20T10:10:46;47.83;;;18.50;;
33654;SDS011;19997;51.274;22.506;2022-11-20T10:13:28;32.70;;;13.02;;
33654;SDS011;19997;51.274;22.506;2022-11-20T10:16:09;39.03;;;15.18;;
33654;SDS011;19997;51.274;22.506;2022-11-20T10:18:51;50.08;;;20.42;;
33654;SDS011;19997;51.274;22.506;2022-11-20T10:21:29;35.28;;;12.18;;
33654;SDS011;19997;51.274;22.506;2022-11-20T10:24:12;36.35;;;14.73;;
33654;SDS011;19997;51.274;22.506;2022-11-20T10:27:02;30.38;;;12.30;;
33654;SDS011;19997;51.274;22.506;2022-11-20T10:29:38;32.63;;;12.95;;
33654;SDS011;19997;51.274;22.506;2022-11-20T10:32:10;33.88;;;11.88;;
33654;SDS011;19997;51.274;22.506;2022-11-20T10:34:43;32.28;;;14.43;;
33654;SDS011;19997;51.274;22.506;2022-11-20T10:37:17;32.70;;;13.07;;
33654;SDS011;19997;51.274;22.506;2022-11-20T10:39:49;25.48;;;11.18;;
33654;SDS011;19997;51.274;22.506;2022-11-20T10:42:22;38.58;;;13.90;;
33654;SDS011;19997;51.274;22.506;2022-11-20T10:44:58;32.25;;;13.15;;
33654;SDS011;19997;51.274;22.506;2022-11-20T10:47:41;27.50;;;12.13;;
33654;SDS011;19997;51.274;22.506;2022-11-20T10:50:11;33.20;;;11.43;;
33654;SDS011;19997;51.274;22.506;2022-11-20T10:52:46;27.30;;;11.88;;
33654;SDS011;19997;51.274;22.506;2022-11-20T10:55:25;30.85;;;12.82;;
33654;SDS011;19997;51.274;22.506;2022-11-20T10:57:58;29.63;;;13.02;;
33654;SDS011;19997;51.274;22.506;2022-11-20T11:00:32;34.20;;;12.65;;
33654;SDS011;19997;51.274;22.506;2022-11-20T11:02:59;39.05;;;13.57;;
33654;SDS011;19997;51.274;22.506;2022-11-20T11:08:17;33.22;;;12.48;;
33654;SDS011;19997;51.274;22.506;2022-11-20T11:10:46;29.90;;;13.98;;
33654;SDS011;19997;51.274;22.506;2022-11-20T11:13:21;30.48;;;13.00;;
33654;SDS011;19997;51.274;22.506;2022-11-20T11:15:48;32.10;;;12.88;;
33654;SDS011;19997;51.274;22.506;2022-11-20T11:18:25;34.22;;;14.70;;
33654;SDS011;19997;51.274;22.506;2022-11-20T11:20:55;33.70;;;14.18;;
33654;SDS011;19997;51.274;22.506;2022-11-20T11:23:28;40.25;;;13.85;;
33654;SDS011;19997;51.274;22.506;2022-11-20T11:25:58;34.80;;;13.77;;
33654;SDS011;19997;51.274;22.506;2022-11-20T11:28:27;37.75;;;13.45;;
33654;SDS011;19997;51.274;22.506;2022-11-20T11:30:54;33.40;;;14.65;;
33654;SDS011;19997;51.274;22.506;2022-11-20T11:33:22;39.90;;;16.63;;
33654;SDS011;19997;51.274;22.506;2022-11-20T11:35:51;44.78;;;17.02;;
33654;SDS011;19997;51.274;22.506;2022-11-20T11:38:21;43.95;;;16.10;;
33654;SDS011;19997;51.274;22.506;2022-11-20T11:40:54;39.33;;;14.52;;
33654;SDS011;19997;51.274;22.506;2022-11-20T11:43:23;32.05;;;13.25;;
33654;SDS011;19997;51.274;22.506;2022-11-20T11:46:20;33.55;;;14.55;;
33654;SDS011;19997;51.274;22.506;2022-11-20T11:48:58;34.75;;;13.75;;
33654;SDS011;19997;51.274;22.506;2022-11-20T11:51:28;44.45;;;16.65;;
33654;SDS011;19997;51.274;22.506;2022-11-20T11:54:05;37.22;;;13.85;;
33654;SDS011;19997;51.274;22.506;2022-11-20T11:56:42;24.25;;;11.07;;
33654;SDS011;19997;51.274;22.506;2022-11-20T11:59:12;25.00;;;11.90;;
33654;SDS011;19997;51.274;22.506;2022-11-20T12:01:50;26.20;;;10.80;;
33654;SDS011;19997;51.274;22.506;2022-11-20T12:04:24;38.58;;;14.70;;
33654;SDS011;19997;51.274;22.506;2022-11-20T12:07:10;57.83;;;20.05;;
33654;SDS011;19997;51.274;22.506;2022-11-20T12:09:43;67.72;;;23.90;;
33654;SDS011;19997;51.274;22.506;2022-11-20T12:12:16;42.78;;;16.27;;
33654;SDS011;19997;51.274;22.506;2022-11-20T12:14:48;43.40;;;17.60;;
33654;SDS011;19997;51.274;22.506;2022-11-20T12:17:19;34.53;;;14.15;;
33654;SDS011;19997;51.274;22.506;2022-11-20T12:19:46;34.38;;;15.48;;
33654;SDS011;19997;51.274;22.506;2022-11-20T12:22:16;34.22;;;14.88;;
33654;SDS011;19997;51.274;22.506;2022-11-20T12:24:54;38.13;;;15.63;;
33654;SDS011;19997;51.274;22.506;2022-11-20T12:30:17;38.60;;;14.68;;
33654;SDS011;19997;51.274;22.506;2022-11-20T12:32:49;44.25;;;16.58;;
33654;SDS011;19997;51.274;22.506;2022-11-20T12:35:43;47.22;;;18.52;;
33654;SDS011;19997;51.274;22.506;2022-11-20T12:38:29;41.25;;;16.10;;
33654;SDS011;19997;51.274;22.506;2022-11-20T12:41:22;47.95;;;18.17;;
33654;SDS011;19997;51.274;22.506;2022-11-20T12:44:26;48.15;;;17.58;;
33654;SDS011;19997;51.274;22.506;2022-11-20T12:47:31;38.40;;;14.25;;
33654;SDS011;19997;51.274;22.506;2022-11-20T12:50:08;34.47;;;13.88;;
33654;SDS011;19997;51.274;22.506;2022-11-20T12:52:47;58.03;;;17.27;;
33654;SDS011;19997;51.274;22.506;2022-11-20T12:55:21;49.47;;;17.02;;
33654;SDS011;19997;51.274;22.506;2022-11-20T12:58:15;66.82;;;20.55;;
33654;SDS011;19997;51.274;22.506;2022-11-20T13:00:51;44.45;;;18.52;;
33654;SDS011;19997;51.274;22.506;2022-11-20T13:03:40;35.97;;;13.50;;
33654;SDS011;19997;51.274;22.506;2022-11-20T13:06:14;42.33;;;15.70;;
33654;SDS011;19997;51.274;22.506;2022-11-20T13:11:15;34.45;;;13.77;;
33654;SDS011;19997;51.274;22.506;2022-11-20T13:13:55;30.98;;;13.25;;
33654;SDS011;19997;51.274;22.506;2022-11-20T13:16:40;41.53;;;15.25;;
33654;SDS011;19997;51.274;22.506;2022-11-20T13:19:13;42.72;;;16.92;;
33654;SDS011;19997;51.274;22.506;2022-11-20T13:21:43;36.70;;;14.43;;
33654;SDS011;19997;51.274;22.506;2022-11-20T13:24:20;36.13;;;13.60;;
33654;SDS011;19997;51.274;22.506;2022-11-20T13:27:05;38.92;;;14.20;;
33654;SDS011;19997;51.274;22.506;2022-11-20T13:29:47;34.60;;;14.32;;
33654;SDS011;19997;51.274;22.506;2022-11-20T13:32:27;45.55;;;16.95;;
33654;SDS011;19997;51.274;22.506;2022-11-20T13:34:57;34.13;;;13.65;;
33654;SDS011;19997;51.274;22.506;2022-11-20T13:37:28;43.30;;;16.50;;
33654;SDS011;19997;51.274;22.506;2022-11-20T13:40:11;50.33;;;18.65;;
33654;SDS011;19997;51.274;22.506;2022-11-20T13:42:40;43.47;;;17.33;;
33654;SDS011;19997;51.274;22.506;2022-11-20T13:45:20;48.33;;;18.55;;
33654;SDS011;19997;51.274;22.506;2022-11-20T13:47:53;46.00;;;17.52;;
33654;SDS011;19997;51.274;22.506;2022-11-20T13:50:21;56.17;;;19.60;;
33654;SDS011;19997;51.274;22.506;2022-11-20T13:53:10;47.25;;;17.45;;
33654;SDS011;19997;51.274;22.506;2022-11-20T13:55:50;41.78;;;15.65;;
33654;SDS011;19997;51.274;22.506;2022-11-20T13:58:26;44.75;;;16.73;;
33654;SDS011;19997;51.274;22.506;2022-11-20T14:01:09;41.47;;;16.42;;
33654;SDS011;19997;51.274;22.506;2022-11-20T14:03:42;48.20;;;18.40;;
33654;SDS011;19997;51.274;22.506;2022-11-20T14:06:11;43.80;;;17.92;;
33654;SDS011;19997;51.274;22.506;2022-11-20T14:08:42;38.45;;;15.48;;
33654;SDS011;19997;51.274;22.506;2022-11-20T14:13:50;41.95;;;15.40;;
33654;SDS011;19997;51.274;22.506;2022-11-20T14:16:24;51.45;;;17.17;;
33654;SDS011;19997;51.274;22.506;2022-11-20T14:18:52;40.28;;;17.05;;
33654;SDS011;19997;51.274;22.506;2022-11-20T14:21:24;36.72;;;14.82;;
33654;SDS011;19997;51.274;22.506;2022-11-20T14:23:52;53.25;;;17.13;;
33654;SDS011;19997;51.274;22.506;2022-11-20T14:26:20;53.63;;;18.00;;
33654;SDS011;19997;51.274;22.506;2022-11-20T14:28:48;53.25;;;18.52;;
33654;SDS011;19997;51.274;22.506;2022-11-20T14:31:21;49.97;;;17.80;;
33654;SDS011;19997;51.274;22.506;2022-11-20T14:33:52;46.35;;;18.55;;
33654;SDS011;19997;51.274;22.506;2022-11-20T14:36:21;51.08;;;17.48;;
33654;SDS011;19997;51.274;22.506;2022-11-20T14:38:50;59.70;;;19.77;;
33654;SDS011;19997;51.274;22.506;2022-11-20T14:41:19;42.03;;;16.85;;
33654;SDS011;19997;51.274;22.506;2022-11-20T14:43:47;41.05;;;15.48;;